Time;durP1;ratioP1;P1;durP2;ratioP2;P2;SDS_P1;SDS_P2;PMS_P1;PMS_P2;Temp;Humidity;BMP_temperature;BMP_pressure;BME280_temperature;BME280_humidity;BME280_pressure;Samples;Min_cycle;Max_cycle;Signal;HPM_P1;HPM_P2
2022/06/29 00:00:12;;;;;;;;;;;16.20;99.90;;;;;;5033633;28;19925;-78
2022/06/29 00:02:37;;;;;;;;;;;16.20;99.90;;;;;;5033529;28;19929;-78
2022/06/29 00:05:03;;;;;;;;;;;16.20;99.90;;;;;;5033583;28;19936;-78
2022/06/29 00:07:29;;;;;;;;;;;16.10;99.90;;;;;;5032801;28;20352;-78
2022/06/29 00:09:54;;;;;;;;;;;16.10;99.90;;;;;;5032840;28;19933;-78
2022/06/29 00:12:20;;;;;;;;;;;16.10;99.90;;;;;;5016335;28;19925;-79
2022/06/29 00:14:46;;;;;;;;;;;16.00;99.90;;;;;;5066599;28;20009;-79
2022/06/29 00:17:12;;;;;;;;;;;16.00;99.90;;;;;;5032705;28;19952;-79
2022/06/29 00:19:38;;;;;;;;;;;16.00;99.90;;;;;;5032350;28;19973;-78
2022/06/29 00:22:04;;;;;;;;;;;16.00;99.90;;;;;;5032347;28;19947;-78
2022/06/29 00:24:30;;;;;;;;;;;15.90;99.90;;;;;;5032169;28;20015;-78
2022/06/29 00:26:56;;;;;;;;;;;15.90;99.90;;;;;;5015810;28;19974;-78
2022/06/29 00:29:22;;;;;;;;;;;16.00;99.90;;;;;;5033319;28;19924;-78
2022/06/29 00:31:47;;;;;;;;;;;15.90;99.90;;;;;;5032253;28;19981;-78
2022/06/29 00:34:13;;;;;;;;;;;15.90;99.90;;;;;;5032397;28;19925;-79
2022/06/29 00:36:38;;;;;;;;;;;15.90;99.90;;;;;;5033628;28;19925;-78
2022/06/29 00:39:04;;;;;;;;;;;15.80;99.90;;;;;;5036074;28;19925;-78
2022/06/29 00:41:30;;;;;;;;;;;15.80;99.90;;;;;;5035857;28;20375;-77
2022/06/29 00:43:55;;;;;;;;;;;15.80;99.90;;;;;;5036528;28;19925;-78
2022/06/29 00:46:21;;;;;;;;;;;15.80;99.90;;;;;;5035801;28;20368;-78
2022/06/29 00:48:46;;;;;;;;;;;15.80;99.90;;;;;;5035367;28;20272;-78
2022/06/29 00:51:14;;;;;;;;;;;15.80;99.90;;;;;;5036411;28;19936;-79
2022/06/29 00:53:41;;;;;;;;;;;15.80;99.90;;;;;;5019034;28;20384;-78
2022/06/29 00:56:08;;;;;;;;;;;15.80;99.90;;;;;;5035695;28;20349;-78
2022/06/29 00:58:34;;;;;;;;;;;15.80;99.90;;;;;;5035545;28;19925;-78
2022/06/29 01:01:03;;;;;;;;;;;15.80;99.90;;;;;;5035750;28;19932;-79
2022/06/29 01:03:30;;;;;;;;;;;15.80;99.90;;;;;;5036221;28;19983;-78
2022/06/29 01:05:55;;;;;;;;;;;15.80;99.90;;;;;;5035601;28;19925;-79
2022/06/29 01:08:21;;;;;;;;;;;15.80;99.90;;;;;;5035397;28;19925;-78
2022/06/29 01:10:46;;;;;;;;;;;15.80;99.90;;;;;;5035381;28;19974;-78
2022/06/29 01:13:12;;;;;;;;;;;15.80;99.90;;;;;;5035017;28;19925;-78
2022/06/29 01:15:39;;;;;;;;;;;15.80;99.90;;;;;;5035301;28;19929;-78
2022/06/29 01:18:04;;;;;;;;;;;15.80;99.90;;;;;;5035248;28;20391;-79
2022/06/29 01:20:30;;;;;;;;;;;15.80;99.90;;;;;;5019530;28;19925;-78
2022/06/29 01:22:55;;;;;;;;;;;15.80;99.90;;;;;;5035184;28;19925;-78
2022/06/29 01:25:21;;;;;;;;;;;15.70;99.90;;;;;;5018264;28;19925;-78
2022/06/29 01:27:47;;;;;;;;;;;15.70;99.90;;;;;;5035833;28;19948;-79
2022/06/29 01:30:12;;;;;;;;;;;15.70;99.90;;;;;;5035276;28;20020;-79
2022/06/29 01:32:39;;;;;;;;;;;15.70;99.90;;;;;;5034940;28;20028;-78
2022/06/29 01:35:11;;;;;;;;;;;15.60;99.90;;;;;;5035444;28;19925;-79
2022/06/29 01:37:41;;;;;;;;;;;15.60;99.90;;;;;;5034936;28;20346;-78
2022/06/29 01:40:07;;;;;;;;;;;15.60;99.90;;;;;;5018454;28;19978;-79
2022/06/29 01:42:33;;;;;;;;;;;15.50;99.90;;;;;;5034845;28;20424;-79
2022/06/29 01:44:58;;;;;;;;;;;15.50;99.90;;;;;;5034941;28;19925;-79
2022/06/29 01:47:24;;;;;;;;;;;15.50;99.90;;;;;;5034504;28;19964;-79
2022/06/29 01:49:50;;;;;;;;;;;15.50;99.90;;;;;;5017737;28;19932;-78
2022/06/29 01:52:16;;;;;;;;;;;15.50;99.90;;;;;;5034832;28;19931;-79
2022/06/29 01:54:41;;;;;;;;;;;15.40;99.90;;;;;;5051559;28;20317;-78
2022/06/29 01:57:07;;;;;;;;;;;15.40;99.90;;;;;;5034675;28;19929;-79
2022/06/29 01:59:32;;;;;;;;;;;15.40;99.90;;;;;;5034877;28;19925;-79
2022/06/29 02:01:58;;;;;;;;;;;15.40;99.90;;;;;;5034586;28;19925;-79
2022/06/29 02:04:24;;;;;;;;;;;15.40;99.90;;;;;;5034568;28;19924;-79
2022/06/29 02:06:49;;;;;;;;;;;15.40;99.90;;;;;;5051061;28;19925;-78
2022/06/29 02:09:15;;;;;;;;;;;15.40;99.90;;;;;;5034571;28;19925;-78
2022/06/29 02:11:40;;;;;;;;;;;15.40;99.90;;;;;;5034398;28;20050;-78
2022/06/29 02:14:06;;;;;;;;;;;15.40;99.90;;;;;;5034009;28;19924;-78
2022/06/29 02:16:32;;;;;;;;;;;15.40;99.90;;;;;;5034327;28;20020;-78
2022/06/29 02:18:57;;;;;;;;;;;15.40;99.90;;;;;;5034360;28;19951;-79
2022/06/29 02:21:23;;;;;;;;;;;15.40;99.90;;;;;;5034265;28;19979;-79
2022/06/29 02:23:49;;;;;;;;;;;15.50;99.90;;;;;;5033919;28;19925;-78
2022/06/29 02:26:14;;;;;;;;;;;15.50;99.90;;;;;;5051306;28;20262;-78
2022/06/29 02:28:40;;;;;;;;;;;15.50;99.90;;;;;;5067691;28;19985;-77
2022/06/29 02:36:34;;;;;;;;;;;15.50;99.90;;;;;;5034992;28;20024;-79
2022/06/29 02:39:00;;;;;;;;;;;15.50;99.90;;;;;;5034807;28;20009;-79
2022/06/29 02:41:26;;;;;;;;;;;15.50;99.90;;;;;;5033921;28;19924;-78
2022/06/29 02:43:51;;;;;;;;;;;15.50;99.90;;;;;;5033912;28;19931;-78
2022/06/29 02:46:17;;;;;;;;;;;15.50;99.90;;;;;;5033963;28;19983;-78
2022/06/29 02:48:42;;;;;;;;;;;15.50;99.90;;;;;;5033856;28;19984;-78
2022/06/29 02:51:08;;;;;;;;;;;15.60;99.90;;;;;;5033769;28;20007;-79
2022/06/29 02:53:34;;;;;;;;;;;15.50;99.90;;;;;;5033541;28;19969;-78
2022/06/29 02:55:59;;;;;;;;;;;15.60;99.90;;;;;;5033962;28;20360;-79
2022/06/29 02:58:25;;;;;;;;;;;15.60;99.90;;;;;;5033685;28;19938;-79
2022/06/29 03:00:50;;;;;;;;;;;15.60;99.90;;;;;;5032653;28;19968;-79
2022/06/29 03:03:16;;;;;;;;;;;15.60;99.90;;;;;;5033732;28;19932;-79
2022/06/29 03:05:42;;;;;;;;;;;15.60;99.90;;;;;;5033290;28;20417;-79
2022/06/29 03:08:07;;;;;;;;;;;15.50;99.90;;;;;;5033520;28;20023;-79
2022/06/29 03:10:33;;;;;;;;;;;15.50;99.90;;;;;;5033598;28;19949;-79
2022/06/29 03:12:58;;;;;;;;;;;15.50;99.90;;;;;;5034125;28;19925;-79
2022/06/29 03:15:25;;;;;;;;;;;15.50;99.90;;;;;;5034228;28;20328;-79
2022/06/29 03:17:54;;;;;;;;;;;15.50;99.90;;;;;;5034144;28;20267;-79
2022/06/29 03:20:20;;;;;;;;;;;15.50;99.90;;;;;;5033237;28;19925;-78
2022/06/29 03:22:46;;;;;;;;;;;15.40;99.90;;;;;;5034036;28;19925;-77
2022/06/29 03:25:12;;;;;;;;;;;15.40;99.90;;;;;;5033062;28;20372;-79
2022/06/29 03:27:38;;;;;;;;;;;15.40;99.90;;;;;;5033529;28;19929;-79
2022/06/29 03:30:04;;;;;;;;;;;15.40;99.90;;;;;;5033654;28;19925;-79
2022/06/29 03:32:29;;;;;;;;;;;15.40;99.90;;;;;;5033062;28;19925;-78
2022/06/29 03:34:55;;;;;;;;;;;15.30;99.90;;;;;;5032878;28;19932;-78
2022/06/29 03:37:20;;;;;;;;;;;15.30;99.90;;;;;;5033275;28;19928;-78
2022/06/29 03:39:46;;;;;;;;;;;15.30;99.90;;;;;;5033228;28;19925;-78
2022/06/29 03:42:11;;;;;;;;;;;15.20;99.90;;;;;;5032982;28;20039;-78
2022/06/29 03:44:38;;;;;;;;;;;15.20;99.90;;;;;;5033111;28;19936;-78
2022/06/29 03:47:03;;;;;;;;;;;15.20;99.90;;;;;;5033263;28;20393;-78
2022/06/29 03:49:29;;;;;;;;;;;15.20;99.90;;;;;;5032967;28;20024;-78
2022/06/29 03:51:54;;;;;;;;;;;15.20;99.90;;;;;;5032993;28;19947;-76
2022/06/29 03:54:20;;;;;;;;;;;15.20;99.90;;;;;;5032613;28;19948;-78
2022/06/29 03:56:45;;;;;;;;;;;15.20;99.90;;;;;;5032915;28;19982;-78
2022/06/29 03:59:11;;;;;;;;;;;15.20;99.90;;;;;;5032996;28;19936;-79
2022/06/29 04:01:36;;;;;;;;;;;15.10;99.90;;;;;;5032600;28;19931;-78
2022/06/29 04:04:02;;;;;;;;;;;15.10;99.90;;;;;;5032775;28;19993;-78
2022/06/29 04:06:27;;;;;;;;;;;15.10;99.90;;;;;;5032733;28;19929;-78
2022/06/29 04:08:53;;;;;;;;;;;15.10;99.90;;;;;;5032805;28;19924;-78
2022/06/29 04:14:03;;;;;;;;;;;15.20;99.90;;;;;;5036765;28;20353;-78
2022/06/29 04:16:28;;;;;;;;;;;15.20;99.90;;;;;;5036249;28;20016;-79
2022/06/29 04:18:54;;;;;;;;;;;15.20;99.90;;;;;;5036453;28;19925;-78
2022/06/29 04:21:19;;;;;;;;;;;15.20;99.90;;;;;;5036201;28;19968;-79
2022/06/29 04:23:45;;;;;;;;;;;15.20;99.90;;;;;;5028185;28;19926;-78
2022/06/29 04:26:11;;;;;;;;;;;15.30;99.90;;;;;;5013140;28;19999;-78
2022/06/29 04:28:36;;;;;;;;;;;15.30;99.90;;;;;;5013787;28;19932;-79
2022/06/29 04:31:02;;;;;;;;;;;15.40;99.90;;;;;;5029441;28;20403;-79
2022/06/29 04:33:28;;;;;;;;;;;15.40;99.90;;;;;;5012873;28;19952;-79
2022/06/29 04:35:53;;;;;;;;;;;15.50;99.90;;;;;;5029623;28;19933;-79
2022/06/29 04:38:19;;;;;;;;;;;15.50;99.90;;;;;;5013097;28;20024;-79
2022/06/29 04:40:44;;;;;;;;;;;15.50;99.90;;;;;;4996735;28;19969;-79
2022/06/29 04:43:10;;;;;;;;;;;15.50;99.90;;;;;;5012793;28;19929;-79
2022/06/29 04:48:20;;;;;;;;;;;15.60;99.90;;;;;;5013539;28;19926;-79
2022/06/29 04:50:45;;;;;;;;;;;15.70;99.90;;;;;;4996039;28;20284;-79
2022/06/29 04:53:11;;;;;;;;;;;15.80;99.90;;;;;;5012349;28;20080;-79
2022/06/29 04:55:36;;;;;;;;;;;15.80;99.90;;;;;;4997007;28;19933;-78
2022/06/29 04:58:02;;;;;;;;;;;15.90;99.90;;;;;;5029010;28;19931;-78
2022/06/29 05:00:28;;;;;;;;;;;16.00;99.90;;;;;;5012764;28;20063;-79
2022/06/29 05:02:54;;;;;;;;;;;16.00;99.90;;;;;;5045333;28;19926;-79
2022/06/29 05:05:19;;;;;;;;;;;16.00;99.90;;;;;;5012309;28;19948;-78
2022/06/29 05:07:45;;;;;;;;;;;16.10;99.90;;;;;;4996349;28;20027;-79
2022/06/29 05:10:11;;;;;;;;;;;16.10;99.90;;;;;;5012577;28;19932;-78
2022/06/29 05:12:38;;;;;;;;;;;16.20;99.90;;;;;;5011947;28;19926;-78
2022/06/29 05:15:05;;;;;;;;;;;16.30;99.90;;;;;;5012298;28;19925;-79
2022/06/29 05:17:36;;;;;;;;;;;16.40;99.90;;;;;;5028432;28;20369;-79
2022/06/29 05:20:08;;;;;;;;;;;16.40;99.90;;;;;;4995658;28;19971;-78
2022/06/29 05:22:34;;;;;;;;;;;16.60;99.90;;;;;;5011577;28;20422;-78
2022/06/29 05:25:00;;;;;;;;;;;16.60;99.90;;;;;;5011345;28;19925;-77
2022/06/29 05:27:26;;;;;;;;;;;16.70;99.90;;;;;;5028585;28;20353;-79
2022/06/29 05:29:51;;;;;;;;;;;16.70;99.90;;;;;;5012153;28;20024;-78
2022/06/29 05:32:17;;;;;;;;;;;16.80;99.90;;;;;;5012806;28;19930;-78
2022/06/29 05:34:42;;;;;;;;;;;16.80;99.90;;;;;;5011817;28;19925;-79
2022/06/29 05:37:08;;;;;;;;;;;16.90;99.90;;;;;;5011638;28;19936;-78
2022/06/29 05:39:33;;;;;;;;;;;17.00;99.90;;;;;;5011965;28;19926;-78
2022/06/29 05:41:59;;;;;;;;;;;17.00;99.90;;;;;;5011889;28;20353;-79
2022/06/29 05:44:25;;;;;;;;;;;17.00;99.90;;;;;;5011829;28;19925;-78
2022/06/29 05:46:50;;;;;;;;;;;17.00;99.90;;;;;;5011877;28;20281;-79
2022/06/29 05:49:16;;;;;;;;;;;17.10;99.90;;;;;;5011828;28;19925;-80
2022/06/29 05:51:41;;;;;;;;;;;17.20;99.90;;;;;;5028063;28;19926;-81
2022/06/29 05:54:07;;;;;;;;;;;17.30;99.90;;;;;;5012165;28;20402;-83
2022/06/29 05:56:33;;;;;;;;;;;17.40;99.90;;;;;;5011661;28;20272;-79
2022/06/29 05:58:58;;;;;;;;;;;17.40;99.90;;;;;;5028369;28;20337;-80
2022/06/29 06:01:24;;;;;;;;;;;17.40;99.90;;;;;;5012255;28;19925;-79
2022/06/29 06:03:50;;;;;;;;;;;17.40;99.90;;;;;;5028152;28;19926;-76
2022/06/29 06:06:15;;;;;;;;;;;17.50;99.90;;;;;;5012231;28;19932;-79
2022/06/29 06:08:41;;;;;;;;;;;17.50;99.90;;;;;;5011751;28;20020;-79
2022/06/29 06:11:06;;;;;;;;;;;17.60;99.90;;;;;;5011179;28;19940;-80
2022/06/29 06:13:32;;;;;;;;;;;17.60;99.90;;;;;;5011892;28;19925;-80
2022/06/29 06:15:59;;;;;;;;;;;17.80;99.90;;;;;;5012128;28;20360;-79
2022/06/29 06:18:24;;;;;;;;;;;17.80;99.90;;;;;;5044047;28;19926;-80
2022/06/29 06:20:50;;;;;;;;;;;18.00;99.90;;;;;;4994975;28;19935;-80
2022/06/29 06:23:16;;;;;;;;;;;18.00;99.90;;;;;;5011498;28;19944;-78
2022/06/29 06:25:41;;;;;;;;;;;18.10;99.90;;;;;;5034063;28;19932;-81
2022/06/29 06:28:07;;;;;;;;;;;18.20;99.90;;;;;;5034212;28;19994;-77
2022/06/29 06:30:32;;;;;;;;;;;18.20;99.90;;;;;;5034183;28;19925;-80
2022/06/29 06:32:58;;;;;;;;;;;18.30;99.90;;;;;;5034666;28;20365;-80
2022/06/29 06:35:23;;;;;;;;;;;18.30;99.90;;;;;;5034678;28;19924;-78
2022/06/29 06:37:51;;;;;;;;;;;18.40;99.90;;;;;;5034354;28;19994;-80
2022/06/29 06:43:01;;;;;;;;;;;18.60;99.90;;;;;;5034936;28;19956;-80
2022/06/29 06:45:27;;;;;;;;;;;18.70;99.90;;;;;;5033750;28;20023;-80
2022/06/29 06:47:52;;;;;;;;;;;18.80;99.90;;;;;;5033946;28;19933;-83
2022/06/29 06:50:18;;;;;;;;;;;18.90;99.90;;;;;;5034009;28;19928;-82
2022/06/29 06:52:44;;;;;;;;;;;18.90;99.90;;;;;;5033481;28;19989;-79
2022/06/29 06:55:09;;;;;;;;;;;19.00;99.90;;;;;;5033654;28;20012;-78
2022/06/29 06:57:35;;;;;;;;;;;19.10;99.90;;;;;;5016934;28;19925;-78
2022/06/29 07:00:00;;;;;;;;;;;19.20;99.90;;;;;;5034006;28;19976;-78
2022/06/29 07:02:26;;;;;;;;;;;19.30;99.90;;;;;;5033885;28;19925;-79
2022/06/29 07:04:52;;;;;;;;;;;19.40;99.90;;;;;;5033689;28;19928;-79
2022/06/29 07:07:17;;;;;;;;;;;19.50;99.90;;;;;;5017938;28;19929;-79
2022/06/29 07:09:43;;;;;;;;;;;19.50;99.90;;;;;;5017938;28;19925;-79
2022/06/29 07:12:09;;;;;;;;;;;19.70;99.90;;;;;;5033550;28;19925;-79
2022/06/29 07:14:34;;;;;;;;;;;19.70;99.90;;;;;;5033178;28;20376;-79
2022/06/29 07:17:00;;;;;;;;;;;19.80;99.90;;;;;;5017088;28;20372;-79
2022/06/29 07:19:25;;;;;;;;;;;19.90;99.90;;;;;;5016965;28;19931;-79
2022/06/29 07:21:51;;;;;;;;;;;20.00;99.90;;;;;;5016999;28;19933;-78
2022/06/29 07:24:16;;;;;;;;;;;20.10;99.90;;;;;;5032849;28;20361;-80
2022/06/29 07:26:42;;;;;;;;;;;20.20;99.90;;;;;;5033343;28;19931;-80
2022/06/29 07:29:08;;;;;;;;;;;20.30;99.90;;;;;;5049848;28;19929;-80
2022/06/29 07:31:33;;;;;;;;;;;20.40;99.90;;;;;;5033282;28;19940;-80
2022/06/29 07:33:59;;;;;;;;;;;20.50;99.90;;;;;;5033200;28;20405;-80
2022/06/29 07:36:25;;;;;;;;;;;20.60;99.90;;;;;;5033216;28;19932;-77
2022/06/29 07:38:51;;;;;;;;;;;20.70;99.90;;;;;;5033186;28;19925;-78
2022/06/29 07:41:17;;;;;;;;;;;20.80;99.90;;;;;;5033231;28;20384;-77
2022/06/29 07:43:43;;;;;;;;;;;20.80;99.90;;;;;;5033374;28;19932;-77
2022/06/29 07:46:09;;;;;;;;;;;21.00;99.90;;;;;;5033125;28;19925;-78
2022/06/29 07:48:35;;;;;;;;;;;21.10;99.90;;;;;;5016630;28;20391;-77
2022/06/29 07:51:01;;;;;;;;;;;21.10;99.90;;;;;;5033046;28;19997;-78
2022/06/29 07:53:27;;;;;;;;;;;21.20;99.90;;;;;;5032491;28;19932;-78
2022/06/29 07:55:53;;;;;;;;;;;21.30;99.90;;;;;;5032933;28;19924;-78
2022/06/29 07:58:18;;;;;;;;;;;21.30;99.90;;;;;;5032930;28;20028;-77
2022/06/29 08:00:44;;;;;;;;;;;21.40;99.90;;;;;;5032801;28;19925;-79
2022/06/29 08:03:10;;;;;;;;;;;21.50;99.90;;;;;;5033058;28;19977;-79
2022/06/29 08:05:36;;;;;;;;;;;21.60;99.90;;;;;;5032852;28;20314;-77
2022/06/29 08:08:02;;;;;;;;;;;21.60;99.90;;;;;;5033658;28;19925;-78
2022/06/29 08:10:28;;;;;;;;;;;21.70;99.90;;;;;;5032550;28;20444;-78
2022/06/29 08:12:54;;;;;;;;;;;21.80;99.90;;;;;;5016229;28;19925;-78
2022/06/29 08:15:19;;;;;;;;;;;21.90;99.90;;;;;;5016250;28;20015;-77
2022/06/29 08:17:45;;;;;;;;;;;22.00;99.90;;;;;;5032655;28;20077;-78
2022/06/29 08:20:11;;;;;;;;;;;22.10;99.90;;;;;;5032699;28;19932;-79
2022/06/29 08:22:37;;;;;;;;;;;22.20;99.90;;;;;;5032903;28;19925;-78
2022/06/29 08:25:03;;;;;;;;;;;22.30;99.90;;;;;;5032104;28;19969;-78
2022/06/29 08:27:30;;;;;;;;;;;22.30;99.90;;;;;;5032579;28;19925;-79
2022/06/29 08:29:56;;;;;;;;;;;22.40;99.90;;;;;;5032442;28;19925;-79
2022/06/29 08:32:22;;;;;;;;;;;22.50;99.90;;;;;;5032675;28;20279;-78
2022/06/29 08:34:47;;;;;;;;;;;22.60;99.90;;;;;;5032205;28;19929;-77
2022/06/29 08:37:13;;;;;;;;;;;22.60;99.90;;;;;;5032459;28;19925;-79
2022/06/29 08:39:38;;;;;;;;;;;22.70;99.90;;;;;;5033220;28;20020;-81
2022/06/29 08:42:04;;;;;;;;;;;22.80;99.90;;;;;;5032454;28;20313;-85
2022/06/29 08:44:32;;;;;;;;;;;22.80;99.90;;;;;;5032383;28;19978;-84
2022/06/29 08:46:58;;;;;;;;;;;22.90;99.90;;;;;;5032433;28;20284;-80
2022/06/29 08:49:25;;;;;;;;;;;23.00;99.90;;;;;;5033010;28;19932;-80
2022/06/29 08:51:51;;;;;;;;;;;23.10;99.90;;;;;;5033056;28;19970;-81
2022/06/29 08:54:17;;;;;;;;;;;23.20;99.90;;;;;;5032236;28;19928;-80
2022/06/29 08:56:43;;;;;;;;;;;23.20;99.90;;;;;;5032347;28;20298;-81
2022/06/29 08:59:10;;;;;;;;;;;23.30;99.90;;;;;;5034762;28;20015;-81
2022/06/29 09:01:36;;;;;;;;;;;23.40;99.90;;;;;;5036320;28;19932;-81
2022/06/29 09:04:02;;;;;;;;;;;23.50;99.90;;;;;;5035659;28;19925;-81
2022/06/29 09:06:27;;;;;;;;;;;23.50;99.90;;;;;;5019177;28;20108;-80
2022/06/29 09:08:53;;;;;;;;;;;23.60;99.90;;;;;;5035258;28;19931;-81
2022/06/29 09:11:23;;;;;;;;;;;23.80;99.90;;;;;;5035477;28;19925;-81
2022/06/29 09:14:07;;;;;;;;;;;23.80;99.90;;;;;;5035214;28;19977;-81
2022/06/29 09:16:49;;;;;;;;;;;23.90;99.90;;;;;;5035260;28;20394;-81
2022/06/29 09:19:15;;;;;;;;;;;23.90;99.90;;;;;;5035589;28;20020;-80
2022/06/29 09:21:44;;;;;;;;;;;24.10;99.90;;;;;;5035290;28;19929;-81
2022/06/29 09:24:14;;;;;;;;;;;24.10;99.90;;;;;;5035449;28;19929;-81
2022/06/29 09:26:39;;;;;;;;;;;24.20;99.90;;;;;;5035111;28;19925;-81
2022/06/29 09:29:11;;;;;;;;;;;24.30;99.90;;;;;;5052449;28;19939;-80
2022/06/29 09:31:36;;;;;;;;;;;24.50;99.90;;;;;;5035508;28;19931;-80
2022/06/29 09:34:17;;;;;;;;;;;24.80;99.90;;;;;;5035115;28;19925;-81
2022/06/29 09:36:55;;;;;;;;;;;25.00;99.90;;;;;;5035273;28;20368;-81
2022/06/29 09:39:34;;;;;;;;;;;25.20;99.90;;;;;;5034948;28;19932;-81
2022/06/29 09:42:00;;;;;;;;;;;25.30;99.90;;;;;;5035051;28;19925;-81
2022/06/29 09:44:26;;;;;;;;;;;25.40;99.90;;;;;;5034904;28;20398;-81
2022/06/29 09:46:55;;;;;;;;;;;25.50;99.90;;;;;;5035063;28;19979;-81
2022/06/29 09:49:25;;;;;;;;;;;25.50;99.90;;;;;;5034976;28;19932;-81
2022/06/29 09:51:58;;;;;;;;;;;25.40;99.90;;;;;;5034855;28;19936;-81
2022/06/29 09:54:25;;;;;;;;;;;25.50;99.90;;;;;;5035227;28;19925;-82
2022/06/29 09:56:50;;;;;;;;;;;25.50;99.90;;;;;;5018101;28;19925;-81
2022/06/29 09:59:22;;;;;;;;;;;25.40;99.90;;;;;;5034993;28;19932;-81
2022/06/29 10:04:32;;;;;;;;;;;25.10;99.90;;;;;;5035556;28;20015;-80
2022/06/29 10:06:59;;;;;;;;;;;25.10;99.90;;;;;;5034708;28;19935;-81
2022/06/29 10:09:24;;;;;;;;;;;25.20;99.90;;;;;;5034102;28;19973;-81
2022/06/29 10:14:44;;;;;;;;;;;25.50;99.90;;;;;;5034522;28;19932;-81
2022/06/29 10:17:13;;;;;;;;;;;25.60;99.90;;;;;;5034441;28;19924;-81
2022/06/29 10:19:58;;;;;;;;;;;25.70;99.90;;;;;;5034459;28;19976;-81
2022/06/29 10:22:23;;;;;;;;;;;25.80;99.70;;;;;;5034322;28;20384;-81
2022/06/29 10:25:10;;;;;;;;;;;25.90;99.90;;;;;;5033853;28;19991;-81
2022/06/29 10:27:36;;;;;;;;;;;26.00;99.90;;;;;;5033967;28;19925;-80
2022/06/29 10:30:18;;;;;;;;;;;26.20;99.90;;;;;;5034277;28;20019;-81
2022/06/29 10:32:43;;;;;;;;;;;26.30;99.90;;;;;;5034390;28;19931;-80
2022/06/29 10:35:09;;;;;;;;;;;26.40;99.60;;;;;;5034981;28;19924;-81
2022/06/29 10:37:46;;;;;;;;;;;26.40;97.60;;;;;;5033869;28;19950;-79
2022/06/29 10:40:16;;;;;;;;;;;26.40;98.50;;;;;;5034985;28;19937;-81
2022/06/29 10:45:36;;;;;;;;;;;26.70;99.70;;;;;;5033776;28;20032;-83
2022/06/29 10:48:06;;;;;;;;;;;26.80;98.50;;;;;;5034676;28;20019;-82
2022/06/29 10:50:32;;;;;;;;;;;26.90;97.40;;;;;;5033897;28;19925;-82
2022/06/29 10:52:58;;;;;;;;;;;27.00;96.40;;;;;;5034014;28;19928;-82
2022/06/29 10:55:25;;;;;;;;;;;26.90;95.90;;;;;;5034159;28;20254;-82
2022/06/29 10:57:52;;;;;;;;;;;27.00;96.90;;;;;;5017336;28;19978;-82
2022/06/29 11:00:20;;;;;;;;;;;27.20;97.10;;;;;;5033782;28;19935;-82
2022/06/29 11:02:46;;;;;;;;;;;27.10;95.60;;;;;;5033692;28;19925;-82
2022/06/29 11:05:12;;;;;;;;;;;27.10;95.40;;;;;;5033765;28;20023;-85
2022/06/29 11:13:11;;;;;;;;;;;27.10;95.70;;;;;;5033644;28;19932;-77
2022/06/29 11:15:46;;;;;;;;;;;27.30;94.00;;;;;;5033573;28;20000;-79
2022/06/29 11:18:13;;;;;;;;;;;27.50;95.40;;;;;;5034219;28;19933;-76
2022/06/29 11:20:39;;;;;;;;;;;27.60;95.40;;;;;;5016328;28;20317;-75
2022/06/29 11:23:15;;;;;;;;;;;27.80;96.10;;;;;;5033301;28;19925;-75
2022/06/29 11:25:43;;;;;;;;;;;28.00;94.50;;;;;;5033310;28;19924;-83
2022/06/29 11:28:09;;;;;;;;;;;28.20;94.90;;;;;;5016864;28;19929;-83
2022/06/29 11:30:35;;;;;;;;;;;28.20;91.80;;;;;;5033556;28;20353;-82
2022/06/29 11:33:06;;;;;;;;;;;28.40;95.20;;;;;;5033165;28;19924;-82
2022/06/29 11:35:32;;;;;;;;;;;28.20;91.80;;;;;;5034162;28;20257;-81
2022/06/29 11:38:05;;;;;;;;;;;27.90;90.10;;;;;;5033276;28;19932;-81
2022/06/29 11:40:35;;;;;;;;;;;27.70;87.40;;;;;;5033008;28;20013;-82
2022/06/29 11:43:08;;;;;;;;;;;27.60;89.70;;;;;;5066444;28;19977;-82
2022/06/29 11:45:37;;;;;;;;;;;27.60;88.10;;;;;;5033260;28;19924;-82
2022/06/29 11:48:09;;;;;;;;;;;27.60;90.00;;;;;;5033396;28;20390;-84
2022/06/29 11:50:40;;;;;;;;;;;28.00;92.00;;;;;;5034014;28;20298;-83
2022/06/29 11:53:06;;;;;;;;;;;28.10;90.90;;;;;;5016915;28;19929;-85
2022/06/29 11:55:39;;;;;;;;;;;28.30;87.60;;;;;;5066458;28;19932;-81
2022/06/29 11:58:07;;;;;;;;;;;28.30;86.90;;;;;;5033000;28;20364;-81
2022/06/29 12:00:36;;;;;;;;;;;28.40;83.50;;;;;;5032988;28;20280;-81
2022/06/29 12:03:01;;;;;;;;;;;28.20;81.40;;;;;;5016495;28;20031;-82
2022/06/29 12:05:27;;;;;;;;;;;28.30;86.10;;;;;;5032899;28;20069;-82
2022/06/29 12:07:52;;;;;;;;;;;28.90;90.40;;;;;;5032853;28;19925;-81
2022/06/29 12:10:18;;;;;;;;;;;29.20;86.50;;;;;;5032967;28;19983;-81
2022/06/29 12:12:43;;;;;;;;;;;29.60;88.80;;;;;;5032922;28;19989;-82
2022/06/29 12:15:09;;;;;;;;;;;29.80;79.70;;;;;;5032714;28;20012;-79
2022/06/29 12:17:36;;;;;;;;;;;30.00;83.90;;;;;;5032599;28;19925;-90
2022/06/29 12:20:03;;;;;;;;;;;30.70;82.00;;;;;;5017303;28;19979;-94
2022/06/29 12:22:29;;;;;;;;;;;30.60;77.60;;;;;;5018520;28;20023;-88
2022/06/29 12:24:54;;;;;;;;;;;30.20;76.90;;;;;;5065533;28;19976;-87
2022/06/29 12:27:20;;;;;;;;;;;30.00;78.70;;;;;;5032812;28;19925;-89
2022/06/29 12:29:45;;;;;;;;;;;30.20;76.70;;;;;;5032427;28;19925;-88
2022/06/29 12:32:11;;;;;;;;;;;30.40;77.30;;;;;;5033447;28;19976;-88
2022/06/29 12:34:36;;;;;;;;;;;30.30;74.40;;;;;;5035985;28;20023;-88
2022/06/29 12:37:03;;;;;;;;;;;30.30;76.10;;;;;;5036227;28;19925;-87
2022/06/29 12:39:30;;;;;;;;;;;30.70;71.20;;;;;;5036208;28;20447;-87
2022/06/29 12:41:55;;;;;;;;;;;31.00;73.40;;;;;;5039915;28;20033;-88
2022/06/29 12:44:21;;;;;;;;;;;31.30;75.60;;;;;;5021932;28;20301;-86
2022/06/29 12:46:47;;;;;;;;;;;31.50;73.80;;;;;;5019768;28;19931;-87
2022/06/29 12:49:13;;;;;;;;;;;31.70;78.50;;;;;;5036142;28;19968;-87
2022/06/29 12:51:38;;;;;;;;;;;31.90;70.50;;;;;;5053462;28;19928;-90
2022/06/29 12:54:04;;;;;;;;;;;31.40;67.60;;;;;;5035558;28;19932;-87
2022/06/29 12:56:29;;;;;;;;;;;30.90;67.00;;;;;;5035819;28;19925;-87
2022/06/29 12:58:55;;;;;;;;;;;31.10;67.10;;;;;;5035867;28;20272;-86
2022/06/29 13:01:21;;;;;;;;;;;31.40;69.70;;;;;;5035675;28;20019;-86
2022/06/29 13:03:46;;;;;;;;;;;31.30;68.40;;;;;;5035596;28;19925;-87
2022/06/29 13:06:12;;;;;;;;;;;31.00;64.60;;;;;;5036321;28;19990;-87
2022/06/29 13:08:38;;;;;;;;;;;30.60;63.10;;;;;;5053051;28;19929;-87
2022/06/29 13:11:04;;;;;;;;;;;31.30;69.10;;;;;;5035509;28;19929;-86
2022/06/29 13:13:30;;;;;;;;;;;31.80;65.80;;;;;;5036023;28;19925;-88
2022/06/29 13:15:56;;;;;;;;;;;32.20;64.50;;;;;;5035101;28;20303;-86
2022/06/29 13:18:22;;;;;;;;;;;32.10;64.00;;;;;;5052237;28;20015;-86
2022/06/29 13:20:47;;;;;;;;;;;32.10;60.60;;;;;;5035059;28;19948;-86
2022/06/29 13:23:17;;;;;;;;;;;32.10;62.10;;;;;;5036049;28;19932;-85
2022/06/29 13:25:43;;;;;;;;;;;32.10;59.40;;;;;;5035300;28;19981;-85
2022/06/29 13:28:09;;;;;;;;;;;32.30;62.60;;;;;;5035359;28;20292;-86
2022/06/29 13:30:34;;;;;;;;;;;32.50;60.60;;;;;;5035137;28;19925;-81
2022/06/29 13:33:00;;;;;;;;;;;32.60;60.10;;;;;;5018838;28;19932;-81
2022/06/29 13:35:26;;;;;;;;;;;33.00;61.70;;;;;;5018980;28;20015;-81
2022/06/29 13:37:54;;;;;;;;;;;33.50;57.20;;;;;;5035877;28;19925;-83
2022/06/29 13:40:19;;;;;;;;;;;33.60;57.20;;;;;;5034971;28;19924;-82
2022/06/29 13:42:45;;;;;;;;;;;32.90;58.10;;;;;;5034992;28;19924;-82
2022/06/29 13:45:11;;;;;;;;;;;33.40;58.20;;;;;;5034902;28;20349;-82
2022/06/29 13:47:36;;;;;;;;;;;33.60;59.10;;;;;;5035221;28;20360;-85
2022/06/29 13:50:02;;;;;;;;;;;33.40;56.50;;;;;;5035169;28;20271;-86
2022/06/29 13:52:27;;;;;;;;;;;32.80;55.40;;;;;;5034970;28;19925;-81
2022/06/29 13:54:53;;;;;;;;;;;33.40;61.60;;;;;;5067468;28;19925;-79
2022/06/29 13:57:18;;;;;;;;;;;33.90;58.10;;;;;;5052854;28;19947;-79
2022/06/29 13:59:44;;;;;;;;;;;33.60;54.50;;;;;;5034744;28;20261;-79
2022/06/29 14:02:10;;;;;;;;;;;33.20;58.60;;;;;;5051019;28;20011;-79
2022/06/29 14:04:35;;;;;;;;;;;32.60;56.20;;;;;;5035406;28;19925;-79
2022/06/29 14:07:01;;;;;;;;;;;32.00;53.10;;;;;;5034285;28;19925;-79
2022/06/29 14:09:26;;;;;;;;;;;31.50;58.30;;;;;;5034627;28;20013;-79
2022/06/29 14:11:52;;;;;;;;;;;31.20;57.30;;;;;;5034682;28;20372;-79
2022/06/29 14:14:18;;;;;;;;;;;31.00;57.70;;;;;;5034303;28;20389;-79
2022/06/29 14:16:43;;;;;;;;;;;31.10;59.70;;;;;;5034575;28;20341;-79
2022/06/29 14:19:09;;;;;;;;;;;31.00;58.50;;;;;;5034068;28;19981;-79
2022/06/29 14:21:35;;;;;;;;;;;31.20;61.00;;;;;;5034087;28;19925;-79
2022/06/29 14:24:00;;;;;;;;;;;31.50;60.70;;;;;;5066969;28;19961;-79
2022/06/29 14:26:26;;;;;;;;;;;31.60;59.70;;;;;;5034348;28;19932;-79
2022/06/29 14:28:52;;;;;;;;;;;32.10;66.10;;;;;;5033966;28;20324;-79
2022/06/29 14:31:17;;;;;;;;;;;31.90;59.80;;;;;;5018132;28;19925;-79
2022/06/29 14:33:43;;;;;;;;;;;31.90;62.70;;;;;;5050458;28;19977;-79
2022/06/29 14:36:09;;;;;;;;;;;31.70;59.50;;;;;;5033794;28;20372;-79
2022/06/29 14:38:35;;;;;;;;;;;31.60;60.60;;;;;;5034421;28;19926;-79